Aviation Digital Data Service (ADDS)

Output produced by METARs form (2259 UTC 15 February 2019)
found at http://www.aviationweather.gov/metar/data/
 
Forecast for: EBFN (KOKSIJDE (BEL-AF, BE)
Text: TAF EBFN 151541Z 1519/1607 20008KT 9999 FEW230
Forecast period: 1900 UTC 15 February 2019 to 0700 UTC 16 February 2019
Forecast type: FROM: standard forecast or significant change
Winds: from the SSW (200 degrees) at 9 MPH (8 knots; 4.1 m/s)
Visibility: 6 or more miles 10+ km)
Ceiling: at least 12,000 feet AGL
Clouds: few clouds at 23000 feet AGL
Weather: no significant weather forecast for this period